Time;durP1;ratioP1;P1;durP2;ratioP2;P2;SDS_P1;SDS_P2;PMS_P1;PMS_P2;Temp;Humidity;BMP_temperature;BMP_pressure;BME280_temperature;BME280_humidity;BME280_pressure;Samples;Min_cycle;Max_cycle;Signal;HPM_P1;HPM_P2
2022/09/09 00:01:53;;;;;;;0.63;0.50;;;;;;;;;;5034281;28;20212;-64
2022/09/09 00:04:38;;;;;;;0.70;0.50;;;;;;;;;;5027204;28;20708;-63
2022/09/09 00:07:10;;;;;;;0.50;0.50;;;;;;;;;;5029904;28;20195;-63
2022/09/09 00:09:42;;;;;;;1.63;0.50;;;;;;;;;;5025693;28;20199;-63
2022/09/09 00:12:12;;;;;;;0.67;0.40;;;;;;;;;;5042563;28;20235;-64
2022/09/09 00:15:01;;;;;;;0.83;0.50;;;;;;;;;;5025893;28;20285;-64
2022/09/09 00:17:44;;;;;;;0.40;0.40;;;;;;;;;;5037936;28;20195;-63
2022/09/09 00:20:23;;;;;;;1.10;0.70;;;;;;;;;;5033790;28;20219;-63
2022/09/09 00:23:01;;;;;;;1.00;0.50;;;;;;;;;;5030907;28;20648;-64
2022/09/09 00:26:02;;;;;;;0.53;0.30;;;;;;;;;;5015392;28;20234;-64
2022/09/09 00:28:36;;;;;;;0.70;0.37;;;;;;;;;;5024034;28;20198;-64
2022/09/09 00:31:25;;;;;;;0.80;0.57;;;;;;;;;;5031915;28;20620;-63
2022/09/09 00:33:57;;;;;;;0.63;0.60;;;;;;;;;;5020390;28;20527;-63
2022/09/09 00:36:47;;;;;;;0.60;0.40;;;;;;;;;;5028503;28;20680;-63
2022/09/09 00:39:34;;;;;;;0.60;0.50;;;;;;;;;;5026958;28;20238;-63
2022/09/09 00:42:18;;;;;;;0.73;0.33;;;;;;;;;;5044407;28;20647;-64
2022/09/09 00:44:53;;;;;;;1.10;0.50;;;;;;;;;;5031090;28;20618;-64
2022/09/09 00:47:45;;;;;;;1.10;0.67;;;;;;;;;;5030601;28;20616;-64
2022/09/09 00:50:29;;;;;;;0.57;0.40;;;;;;;;;;5013746;28;20282;-64
2022/09/09 00:53:22;;;;;;;0.83;0.40;;;;;;;;;;5050377;28;20238;-64
2022/09/09 00:55:57;;;;;;;1.67;0.60;;;;;;;;;;5068415;28;20205;-63
2022/09/09 00:58:27;;;;;;;0.90;0.30;;;;;;;;;;5059235;28;20264;-64
2022/09/09 01:01:08;;;;;;;0.67;0.40;;;;;;;;;;5056289;28;20881;-63
2022/09/09 01:04:00;;;;;;;0.90;0.50;;;;;;;;;;5046087;28;20209;-64
2022/09/09 01:06:33;;;;;;;1.17;0.47;;;;;;;;;;5057102;28;20194;-64
2022/09/09 01:09:21;;;;;;;0.60;0.50;;;;;;;;;;5055854;28;20610;-64
2022/09/09 01:12:14;;;;;;;1.07;0.40;;;;;;;;;;5055765;28;20201;-63
2022/09/09 01:14:51;;;;;;;1.17;0.50;;;;;;;;;;5043884;28;20245;-63
2022/09/09 01:17:35;;;;;;;1.10;0.40;;;;;;;;;;5021707;28;20539;-64
2022/09/09 01:20:12;;;;;;;0.70;0.60;;;;;;;;;;5037594;28;20207;-64
2022/09/09 01:23:00;;;;;;;0.53;0.50;;;;;;;;;;5041343;28;20227;-63
2022/09/09 01:25:45;;;;;;;0.63;0.40;;;;;;;;;;5057242;28;20185;-64
2022/09/09 01:28:34;;;;;;;0.43;0.40;;;;;;;;;;5051258;28;20291;-64
2022/09/09 01:31:13;;;;;;;0.77;0.53;;;;;;;;;;5065103;28;20533;-64
2022/09/09 01:33:46;;;;;;;0.87;0.57;;;;;;;;;;5051082;28;20211;-64
2022/09/09 01:36:21;;;;;;;0.70;0.53;;;;;;;;;;5051246;28;20571;-64
2022/09/09 01:38:55;;;;;;;1.90;0.70;;;;;;;;;;5048647;28;20217;-64
2022/09/09 01:41:28;;;;;;;1.00;0.40;;;;;;;;;;5060708;28;20202;-64
2022/09/09 01:43:59;;;;;;;1.03;0.43;;;;;;;;;;5050029;28;20741;-63
2022/09/09 01:46:29;;;;;;;1.00;0.50;;;;;;;;;;5040089;28;20278;-64
2022/09/09 01:49:02;;;;;;;1.07;0.50;;;;;;;;;;5052584;28;20198;-64
2022/09/09 01:51:33;;;;;;;0.47;0.37;;;;;;;;;;5037937;28;20291;-63
2022/09/09 01:54:04;;;;;;;1.27;0.50;;;;;;;;;;5050904;28;20626;-64
2022/09/09 01:56:39;;;;;;;0.53;0.53;;;;;;;;;;5050571;28;20260;-64
2022/09/09 01:59:14;;;;;;;1.13;0.50;;;;;;;;;;5044557;28;20309;-64
2022/09/09 02:02:02;;;;;;;0.57;0.40;;;;;;;;;;5048762;28;20534;-63
2022/09/09 02:04:46;;;;;;;1.67;0.50;;;;;;;;;;5047357;28;20205;-64
2022/09/09 02:07:33;;;;;;;1.13;0.50;;;;;;;;;;5061625;28;20612;-64
2022/09/09 02:10:17;;;;;;;0.60;0.47;;;;;;;;;;5044321;28;20206;-64
2022/09/09 02:12:57;;;;;;;0.77;0.50;;;;;;;;;;5043260;28;20186;-64
2022/09/09 02:15:49;;;;;;;0.40;0.40;;;;;;;;;;5056649;28;20233;-64
2022/09/09 02:18:23;;;;;;;1.20;0.40;;;;;;;;;;5058401;28;20217;-63
2022/09/09 02:21:05;;;;;;;0.43;0.40;;;;;;;;;;5054369;28;20210;-63
2022/09/09 02:23:36;;;;;;;0.73;0.50;;;;;;;;;;5052514;28;20187;-63
2022/09/09 02:26:11;;;;;;;0.53;0.53;;;;;;;;;;5061942;28;20200;-63
2022/09/09 02:28:41;;;;;;;0.47;0.47;;;;;;;;;;5057357;28;20191;-64
2022/09/09 02:31:18;;;;;;;5.10;0.80;;;;;;;;;;5048701;28;20253;-63
2022/09/09 02:33:50;;;;;;;1.50;0.63;;;;;;;;;;5061488;28;20275;-63
2022/09/09 02:36:23;;;;;;;0.70;0.43;;;;;;;;;;5034896;28;20697;-63
2022/09/09 02:39:09;;;;;;;1.43;0.60;;;;;;;;;;5060601;28;20245;-63
2022/09/09 02:41:43;;;;;;;0.90;0.50;;;;;;;;;;5059382;28;20198;-63
2022/09/09 02:44:19;;;;;;;1.30;0.73;;;;;;;;;;5037057;28;20186;-63
2022/09/09 02:47:10;;;;;;;0.67;0.50;;;;;;;;;;5052508;28;20182;-63
2022/09/09 02:49:51;;;;;;;1.23;0.60;;;;;;;;;;5065366;28;20814;-63
2022/09/09 02:52:26;;;;;;;1.50;0.50;;;;;;;;;;5041434;28;20229;-64
2022/09/09 02:54:59;;;;;;;1.43;0.50;;;;;;;;;;5038486;28;20213;-63
2022/09/09 02:57:29;;;;;;;0.80;0.60;;;;;;;;;;5047559;28;20205;-63
2022/09/09 03:00:01;;;;;;;0.57;0.57;;;;;;;;;;5073558;28;20205;-63
2022/09/09 03:02:30;;;;;;;1.20;0.47;;;;;;;;;;5068973;28;20217;-63
2022/09/09 03:05:02;;;;;;;0.40;0.40;;;;;;;;;;5050350;28;20540;-64
2022/09/09 03:07:45;;;;;;;0.47;0.40;;;;;;;;;;5065514;28;20236;-63
2022/09/09 03:10:15;;;;;;;0.70;0.50;;;;;;;;;;5073593;28;20221;-64
2022/09/09 03:12:47;;;;;;;0.97;0.50;;;;;;;;;;5074548;28;20206;-64
2022/09/09 03:15:18;;;;;;;2.67;0.83;;;;;;;;;;5079137;28;20201;-64
2022/09/09 03:17:47;;;;;;;0.50;0.50;;;;;;;;;;5079605;28;20240;-63
2022/09/09 03:20:20;;;;;;;1.40;0.60;;;;;;;;;;5078136;28;20839;-63
2022/09/09 03:22:52;;;;;;;0.70;0.50;;;;;;;;;;5082031;28;20634;-63
2022/09/09 03:25:23;;;;;;;0.57;0.50;;;;;;;;;;5078867;28;20201;-63
2022/09/09 03:28:00;;;;;;;0.70;0.40;;;;;;;;;;5064787;28;20202;-63
2022/09/09 03:30:42;;;;;;;1.83;0.67;;;;;;;;;;5073836;28;20272;-64
2022/09/09 03:33:12;;;;;;;2.20;0.93;;;;;;;;;;5079173;28;20193;-63
2022/09/09 03:35:51;;;;;;;3.07;0.50;;;;;;;;;;5062757;28;20200;-64
2022/09/09 03:38:24;;;;;;;0.83;0.60;;;;;;;;;;5061948;28;20221;-63
2022/09/09 03:40:57;;;;;;;1.27;0.60;;;;;;;;;;5079372;28;20272;-64
2022/09/09 03:43:29;;;;;;;0.73;0.47;;;;;;;;;;5081370;28;20188;-64
2022/09/09 03:45:57;;;;;;;2.00;0.50;;;;;;;;;;5081957;28;20198;-64
2022/09/09 03:48:28;;;;;;;0.70;0.53;;;;;;;;;;5070025;28;20644;-63
2022/09/09 03:51:00;;;;;;;0.87;0.50;;;;;;;;;;5080951;28;20213;-64
2022/09/09 03:53:34;;;;;;;1.80;0.50;;;;;;;;;;5077188;28;20193;-64
2022/09/09 03:56:06;;;;;;;0.70;0.47;;;;;;;;;;5069123;28;20237;-63
2022/09/09 03:58:40;;;;;;;1.37;0.60;;;;;;;;;;5072803;28;20206;-63
2022/09/09 04:01:16;;;;;;;3.17;0.70;;;;;;;;;;5070070;28;20263;-63
2022/09/09 04:03:58;;;;;;;1.37;0.90;;;;;;;;;;5046097;28;20255;-63
2022/09/09 04:06:35;;;;;;;1.57;0.63;;;;;;;;;;5075109;28;20197;-63
2022/09/09 04:09:29;;;;;;;0.50;0.50;;;;;;;;;;5075200;28;20673;-63
2022/09/09 04:12:00;;;;;;;0.90;0.67;;;;;;;;;;5084444;28;20220;-63
2022/09/09 04:14:30;;;;;;;2.07;0.63;;;;;;;;;;5068247;28;20267;-63
2022/09/09 04:17:03;;;;;;;2.77;0.60;;;;;;;;;;5060789;28;20219;-63
2022/09/09 04:19:37;;;;;;;1.30;0.70;;;;;;;;;;5078938;28;20201;-63
2022/09/09 04:22:09;;;;;;;1.83;0.70;;;;;;;;;;5075448;28;20439;-64
2022/09/09 04:24:49;;;;;;;2.00;0.67;;;;;;;;;;5079961;28;20188;-63
2022/09/09 04:27:23;;;;;;;1.90;0.60;;;;;;;;;;5087770;28;20250;-64
2022/09/09 04:29:56;;;;;;;1.20;0.60;;;;;;;;;;5069219;28;20208;-63
2022/09/09 04:32:29;;;;;;;2.37;0.70;;;;;;;;;;5071425;28;20275;-64
2022/09/09 04:35:00;;;;;;;1.20;0.70;;;;;;;;;;5077844;28;20202;-64
2022/09/09 04:37:30;;;;;;;1.70;1.00;;;;;;;;;;5076128;28;20201;-64
2022/09/09 04:40:02;;;;;;;2.57;0.90;;;;;;;;;;5063738;28;20238;-63
2022/09/09 04:42:37;;;;;;;3.27;0.70;;;;;;;;;;5078649;28;20196;-63
2022/09/09 04:45:10;;;;;;;2.33;0.70;;;;;;;;;;5086306;28;20213;-63
2022/09/09 04:47:43;;;;;;;3.13;0.83;;;;;;;;;;5072017;28;20246;-63
2022/09/09 04:50:16;;;;;;;1.07;0.50;;;;;;;;;;5078420;28;20672;-63
2022/09/09 04:53:03;;;;;;;0.93;0.80;;;;;;;;;;5057708;28;20236;-63
2022/09/09 04:55:34;;;;;;;1.40;0.70;;;;;;;;;;5070530;28;20249;-61
2022/09/09 04:58:06;;;;;;;1.03;0.77;;;;;;;;;;5079210;28;20204;-64
2022/09/09 05:00:39;;;;;;;2.93;0.80;;;;;;;;;;5070917;28;20213;-63
2022/09/09 05:03:10;;;;;;;1.03;0.80;;;;;;;;;;5049195;28;20240;-63
2022/09/09 05:05:40;;;;;;;2.13;0.80;;;;;;;;;;5068368;28;20276;-62
2022/09/09 05:08:13;;;;;;;1.70;0.80;;;;;;;;;;5066845;28;20189;-62
2022/09/09 05:10:43;;;;;;;1.77;0.87;;;;;;;;;;5067592;28;20979;-62
2022/09/09 05:13:14;;;;;;;1.67;0.80;;;;;;;;;;5067717;28;20211;-62
2022/09/09 05:15:53;;;;;;;1.13;0.80;;;;;;;;;;5067087;28;20196;-63
2022/09/09 05:18:28;;;;;;;2.87;0.90;;;;;;;;;;5040937;28;20195;-62
2022/09/09 05:21:04;;;;;;;2.10;0.80;;;;;;;;;;5059866;28;20296;-62
2022/09/09 05:23:39;;;;;;;2.93;1.00;;;;;;;;;;5093185;28;20523;-62
2022/09/09 05:26:13;;;;;;;1.00;0.60;;;;;;;;;;5063607;28;20338;-62
2022/09/09 05:28:46;;;;;;;2.10;0.87;;;;;;;;;;5067182;28;20237;-62
2022/09/09 05:31:15;;;;;;;10.37;2.70;;;;;;;;;;5078559;28;20190;-63
2022/09/09 05:33:49;;;;;;;9.37;3.33;;;;;;;;;;5076190;28;20619;-64
2022/09/09 05:36:18;;;;;;;12.60;4.80;;;;;;;;;;5082529;28;20201;-63
2022/09/09 05:38:55;;;;;;;15.70;5.23;;;;;;;;;;5068950;28;20225;-63
2022/09/09 05:41:25;;;;;;;12.83;5.40;;;;;;;;;;5072587;28;20684;-63
2022/09/09 05:44:00;;;;;;;13.63;5.10;;;;;;;;;;5067746;28;20225;-63
2022/09/09 05:46:33;;;;;;;15.97;5.53;;;;;;;;;;5079095;28;20196;-62
2022/09/09 05:49:16;;;;;;;19.10;5.00;;;;;;;;;;5070728;28;20306;-62
2022/09/09 05:51:48;;;;;;;16.10;5.83;;;;;;;;;;5066941;28;20271;-63
2022/09/09 05:54:19;;;;;;;13.43;4.57;;;;;;;;;;5074257;28;20649;-63
2022/09/09 05:56:53;;;;;;;12.37;4.90;;;;;;;;;;5069130;28;20440;-63
2022/09/09 05:59:23;;;;;;;9.97;3.53;;;;;;;;;;5067718;28;20290;-62
2022/09/09 06:01:55;;;;;;;11.07;4.27;;;;;;;;;;5063504;28;20318;-62
2022/09/09 06:04:26;;;;;;;10.00;3.87;;;;;;;;;;5083524;28;20213;-63
2022/09/09 06:06:57;;;;;;;11.27;3.60;;;;;;;;;;5063425;28;20194;-63
2022/09/09 06:09:30;;;;;;;8.03;2.97;;;;;;;;;;5065645;28;20199;-63
2022/09/09 06:12:01;;;;;;;7.27;2.77;;;;;;;;;;5065894;28;20261;-63
2022/09/09 06:14:30;;;;;;;6.10;2.50;;;;;;;;;;5065935;28;20547;-63
2022/09/09 06:17:05;;;;;;;5.63;2.80;;;;;;;;;;5071528;28;20713;-63
2022/09/09 06:19:34;;;;;;;5.00;2.57;;;;;;;;;;5035850;28;20875;-63
2022/09/09 06:22:04;;;;;;;5.30;2.57;;;;;;;;;;5081178;28;20217;-63
2022/09/09 06:24:36;;;;;;;4.40;1.83;;;;;;;;;;5074354;28;20197;-63
2022/09/09 06:27:07;;;;;;;8.00;2.40;;;;;;;;;;5075840;28;20210;-64
2022/09/09 06:29:38;;;;;;;6.10;2.37;;;;;;;;;;5065792;28;20191;-63
2022/09/09 06:32:08;;;;;;;3.83;1.83;;;;;;;;;;5069624;28;20194;-63
2022/09/09 06:34:37;;;;;;;4.60;1.70;;;;;;;;;;5061976;28;20266;-63
2022/09/09 06:37:08;;;;;;;3.27;1.50;;;;;;;;;;5076205;28;20220;-63
2022/09/09 06:39:40;;;;;;;3.47;1.63;;;;;;;;;;5069880;28;20198;-62
2022/09/09 06:42:09;;;;;;;4.73;1.80;;;;;;;;;;5072411;28;20209;-63
2022/09/09 06:44:40;;;;;;;3.80;1.50;;;;;;;;;;5070618;28;20528;-63
2022/09/09 06:47:10;;;;;;;3.57;1.60;;;;;;;;;;5086344;28;20198;-63
2022/09/09 06:49:45;;;;;;;3.80;1.70;;;;;;;;;;5065276;28;20189;-64
2022/09/09 06:52:14;;;;;;;2.97;1.40;;;;;;;;;;5055410;28;20230;-62
2022/09/09 06:54:42;;;;;;;2.63;1.47;;;;;;;;;;5043927;28;20198;-62
2022/09/09 06:57:16;;;;;;;6.23;1.73;;;;;;;;;;5052926;28;20220;-63
2022/09/09 07:00:07;;;;;;;3.97;1.60;;;;;;;;;;5040332;28;20195;-63
2022/09/09 07:02:39;;;;;;;1.90;1.23;;;;;;;;;;5027192;28;20238;-63
2022/09/09 07:05:17;;;;;;;3.63;1.67;;;;;;;;;;5048769;28;20285;-63
2022/09/09 07:07:48;;;;;;;5.60;1.60;;;;;;;;;;5049320;28;20664;-63
2022/09/09 07:10:19;;;;;;;3.60;1.47;;;;;;;;;;5055051;28;20193;-64
2022/09/09 07:12:55;;;;;;;3.37;1.40;;;;;;;;;;5041156;28;20226;-63
2022/09/09 07:15:28;;;;;;;4.33;1.60;;;;;;;;;;5047735;28;20218;-63
2022/09/09 07:18:02;;;;;;;4.33;1.27;;;;;;;;;;5048880;28;20202;-63
2022/09/09 07:20:36;;;;;;;2.50;1.10;;;;;;;;;;5071559;28;20219;-62
2022/09/09 07:23:09;;;;;;;3.47;1.50;;;;;;;;;;5043382;28;20217;-64
2022/09/09 07:25:45;;;;;;;7.13;1.37;;;;;;;;;;5046509;28;20220;-65
2022/09/09 07:28:14;;;;;;;5.30;1.53;;;;;;;;;;5030810;28;20283;-65
2022/09/09 07:31:03;;;;;;;7.40;1.73;;;;;;;;;;5050394;28;20279;-64
2022/09/09 07:33:36;;;;;;;3.17;1.60;;;;;;;;;;5018916;28;20633;-65
2022/09/09 07:36:10;;;;;;;4.60;1.57;;;;;;;;;;5029958;28;20419;-64
2022/09/09 07:38:39;;;;;;;4.07;1.23;;;;;;;;;;5043916;28;20214;-63
2022/09/09 07:41:12;;;;;;;6.03;1.50;;;;;;;;;;5045925;28;20210;-65
2022/09/09 07:43:44;;;;;;;5.73;1.30;;;;;;;;;;5030127;28;20194;-63
2022/09/09 07:46:14;;;;;;;5.40;1.50;;;;;;;;;;5028553;28;20191;-65
2022/09/09 07:48:55;;;;;;;3.10;1.60;;;;;;;;;;5033536;28;20202;-65
2022/09/09 07:51:35;;;;;;;3.17;1.60;;;;;;;;;;5059588;28;20706;-64
2022/09/09 07:54:05;;;;;;;3.13;1.20;;;;;;;;;;5045007;28;20285;-62
2022/09/09 07:56:39;;;;;;;4.33;1.33;;;;;;;;;;5020687;28;20741;-63
2022/09/09 07:59:11;;;;;;;6.80;1.83;;;;;;;;;;5060542;28;20233;-63
2022/09/09 08:01:48;;;;;;;4.00;1.30;;;;;;;;;;5027058;28;20214;-64
2022/09/09 08:04:20;;;;;;;3.93;1.17;;;;;;;;;;5055078;28;20606;-66
2022/09/09 08:06:49;;;;;;;5.10;1.33;;;;;;;;;;5049917;28;20271;-67
2022/09/09 08:09:21;;;;;;;3.23;1.20;;;;;;;;;;5050484;28;20190;-69
2022/09/09 08:11:51;;;;;;;3.53;1.73;;;;;;;;;;5047572;28;20229;-67
2022/09/09 08:14:20;;;;;;;2.77;1.50;;;;;;;;;;5045906;28;20272;-66
2022/09/09 08:16:56;;;;;;;1.93;1.23;;;;;;;;;;5056412;28;20297;-66
2022/09/09 08:19:25;;;;;;;3.27;1.53;;;;;;;;;;5056510;28;20258;-67
2022/09/09 08:22:02;;;;;;;5.07;1.50;;;;;;;;;;5046651;28;20210;-69
2022/09/09 08:24:30;;;;;;;5.30;1.27;;;;;;;;;;5047890;28;20217;-68
2022/09/09 08:26:58;;;;;;;3.23;1.43;;;;;;;;;;5046514;28;20204;-69
2022/09/09 08:29:28;;;;;;;2.10;1.17;;;;;;;;;;5048535;28;20221;-68
2022/09/09 08:32:08;;;;;;;3.13;1.53;;;;;;;;;;5047671;28;20194;-66
2022/09/09 08:34:38;;;;;;;2.27;1.10;;;;;;;;;;5041195;28;20202;-66
2022/09/09 08:37:09;;;;;;;3.47;1.30;;;;;;;;;;5052549;28;20217;-69
2022/09/09 08:39:40;;;;;;;2.90;1.17;;;;;;;;;;5043495;28;20229;-67
2022/09/09 08:42:31;;;;;;;3.13;1.20;;;;;;;;;;5028600;28;20218;-65
2022/09/09 08:45:14;;;;;;;3.07;1.43;;;;;;;;;;5048173;28;20225;-64
2022/09/09 08:48:07;;;;;;;2.50;1.23;;;;;;;;;;5049260;28;20690;-65
2022/09/09 08:50:40;;;;;;;4.40;1.40;;;;;;;;;;5054568;28;20689;-66
2022/09/09 08:53:11;;;;;;;4.10;1.40;;;;;;;;;;5068487;28;20235;-65
2022/09/09 08:55:55;;;;;;;2.40;1.30;;;;;;;;;;5055545;28;20745;-69
2022/09/09 08:58:30;;;;;;;3.67;1.07;;;;;;;;;;5048864;28;20271;-69
2022/09/09 09:01:10;;;;;;;2.03;1.00;;;;;;;;;;5035279;28;20190;-67
2022/09/09 09:03:50;;;;;;;3.33;1.03;;;;;;;;;;5044807;28;20298;-66
2022/09/09 09:06:41;;;;;;;2.60;1.00;;;;;;;;;;5048985;28;20194;-66
2022/09/09 09:09:23;;;;;;;6.13;0.90;;;;;;;;;;5040504;28;20194;-67
2022/09/09 09:12:00;;;;;;;1.73;0.90;;;;;;;;;;5034045;28;20301;-67
2022/09/09 09:14:39;;;;;;;4.17;1.30;;;;;;;;;;5044928;28;20220;-67
2022/09/09 09:17:15;;;;;;;2.40;1.20;;;;;;;;;;5050314;28;20263;-65
2022/09/09 09:19:53;;;;;;;4.07;1.03;;;;;;;;;;5033920;28;20277;-62
2022/09/09 09:22:39;;;;;;;2.23;1.20;;;;;;;;;;5055887;28;20296;-62
2022/09/09 09:25:24;;;;;;;2.60;1.30;;;;;;;;;;5031623;28;20190;-65
2022/09/09 09:28:06;;;;;;;1.67;1.20;;;;;;;;;;5050940;28;20219;-66
2022/09/09 09:31:01;;;;;;;2.37;1.10;;;;;;;;;;5045776;28;20809;-65
2022/09/09 09:33:49;;;;;;;3.97;1.17;;;;;;;;;;5040949;28;20224;-64
2022/09/09 09:36:18;;;;;;;2.57;1.30;;;;;;;;;;5058351;28;20259;-65
2022/09/09 09:39:00;;;;;;;2.83;1.00;;;;;;;;;;5025348;28;20252;-64
2022/09/09 09:41:52;;;;;;;1.60;0.93;;;;;;;;;;5036947;28;20222;-65
2022/09/09 09:44:37;;;;;;;2.60;1.13;;;;;;;;;;5061279;28;20194;-64
2022/09/09 09:47:10;;;;;;;2.60;1.10;;;;;;;;;;5034574;28;20941;-64
2022/09/09 09:49:40;;;;;;;3.97;1.43;;;;;;;;;;5058925;28;20190;-64
2022/09/09 09:52:18;;;;;;;1.43;0.80;;;;;;;;;;5058887;28;20670;-63
2022/09/09 09:54:46;;;;;;;2.23;1.07;;;;;;;;;;5066913;28;20667;-64
2022/09/09 09:57:28;;;;;;;3.37;1.00;;;;;;;;;;5062571;28;20186;-65
2022/09/09 10:00:14;;;;;;;3.80;1.00;;;;;;;;;;5081579;28;20189;-64
2022/09/09 10:02:45;;;;;;;3.57;1.00;;;;;;;;;;5056863;28;20234;-64
2022/09/09 10:05:22;;;;;;;2.30;1.10;;;;;;;;;;5064855;28;20565;-63
2022/09/09 10:08:12;;;;;;;3.23;1.43;;;;;;;;;;5046122;28;20230;-63
2022/09/09 10:10:59;;;;;;;2.57;1.40;;;;;;;;;;5061406;28;20192;-64
2022/09/09 10:13:46;;;;;;;3.07;1.20;;;;;;;;;;5069658;28;20198;-64
2022/09/09 10:16:32;;;;;;;2.60;1.20;;;;;;;;;;5072695;28;20590;-64
2022/09/09 10:19:07;;;;;;;2.00;1.10;;;;;;;;;;5066947;28;20213;-64
2022/09/09 10:21:58;;;;;;;2.73;1.30;;;;;;;;;;5092930;28;20246;-63
2022/09/09 10:24:47;;;;;;;3.00;1.20;;;;;;;;;;5078237;28;20215;-63
2022/09/09 10:27:29;;;;;;;2.37;0.90;;;;;;;;;;5068866;28;20229;-63
2022/09/09 10:30:10;;;;;;;3.20;1.03;;;;;;;;;;5063767;28;20642;-63
2022/09/09 10:33:05;;;;;;;2.20;1.17;;;;;;;;;;5075829;28;20262;-64
2022/09/09 10:35:58;;;;;;;3.57;1.10;;;;;;;;;;5035926;28;20218;-64
2022/09/09 10:38:47;;;;;;;3.43;1.30;;;;;;;;;;5031597;28;20340;-62
2022/09/09 10:41:38;;;;;;;2.23;1.10;;;;;;;;;;5034196;28;20296;-62
2022/09/09 10:44:29;;;;;;;2.97;1.20;;;;;;;;;;5029131;28;20199;-62
2022/09/09 10:47:15;;;;;;;3.23;1.20;;;;;;;;;;5006338;28;20952;-63
2022/09/09 10:50:06;;;;;;;2.50;1.37;;;;;;;;;;5027926;28;20203;-62
2022/09/09 10:52:37;;;;;;;1.53;1.00;;;;;;;;;;5026137;28;20233;-62
2022/09/09 10:55:35;;;;;;;3.47;1.40;;;;;;;;;;5049443;28;20285;-62
2022/09/09 10:58:15;;;;;;;2.37;1.10;;;;;;;;;;5043189;28;20265;-62
2022/09/09 11:00:49;;;;;;;4.87;1.43;;;;;;;;;;5045676;28;20202;-70
2022/09/09 11:03:27;;;;;;;3.03;1.30;;;;;;;;;;5046785;28;20276;-70
2022/09/09 11:06:03;;;;;;;3.53;1.03;;;;;;;;;;5044238;28;20532;-67
2022/09/09 11:08:34;;;;;;;2.63;1.20;;;;;;;;;;5046870;28;20225;-69
2022/09/09 11:11:43;;;;;;;3.03;1.17;;;;;;;;;;5077559;28;20738;-65
2022/09/09 11:14:28;;;;;;;6.47;1.10;;;;;;;;;;5008536;28;20204;-68
2022/09/09 11:17:02;;;;;;;7.10;1.37;;;;;;;;;;5046872;28;20305;-67
2022/09/09 11:19:35;;;;;;;2.50;1.17;;;;;;;;;;5055109;28;20187;-67
2022/09/09 11:22:09;;;;;;;2.13;1.10;;;;;;;;;;5045485;28;20225;-66
2022/09/09 11:25:00;;;;;;;2.40;0.90;;;;;;;;;;5050099;28;20209;-66
2022/09/09 11:27:36;;;;;;;2.07;1.10;;;;;;;;;;5019829;28;20191;-67
2022/09/09 11:30:19;;;;;;;1.43;0.70;;;;;;;;;;5048863;28;20256;-69
2022/09/09 11:33:30;;;;;;;3.30;1.00;;;;;;;;;;5057558;28;20296;-68
2022/09/09 11:36:19;;;;;;;1.60;0.77;;;;;;;;;;5047925;28;20221;-67
2022/09/09 11:38:58;;;;;;;2.10;0.90;;;;;;;;;;5058125;28;20210;-68
2022/09/09 11:41:37;;;;;;;1.23;0.90;;;;;;;;;;5062027;28;20714;-70
2022/09/09 11:44:16;;;;;;;1.37;0.80;;;;;;;;;;5070304;28;20212;-69
2022/09/09 11:46:46;;;;;;;1.40;0.90;;;;;;;;;;5055885;28;20252;-69
2022/09/09 11:49:28;;;;;;;2.17;1.03;;;;;;;;;;5058648;28;20672;-70
2022/09/09 11:52:11;;;;;;;2.30;0.97;;;;;;;;;;4788468;28;7382021;-68
2022/09/09 11:54:50;;;;;;;2.00;0.90;;;;;;;;;;5057694;28;20662;-67
2022/09/09 11:57:28;;;;;;;1.87;1.17;;;;;;;;;;5046862;28;20651;-68
2022/09/09 12:00:05;;;;;;;1.83;0.83;;;;;;;;;;5056267;28;20199;-70
2022/09/09 12:02:37;;;;;;;2.90;0.90;;;;;;;;;;5008216;28;20553;-69
2022/09/09 12:05:19;;;;;;;2.67;0.90;;;;;;;;;;5049803;28;20859;-70
2022/09/09 12:07:58;;;;;;;2.30;0.60;;;;;;;;;;5047416;28;20658;-67
2022/09/09 12:10:36;;;;;;;1.70;1.00;;;;;;;;;;5010993;28;20217;-67
2022/09/09 12:13:21;;;;;;;1.47;0.77;;;;;;;;;;5053928;28;20202;-68
2022/09/09 12:15:58;;;;;;;2.97;1.10;;;;;;;;;;5041879;28;20222;-69
2022/09/09 12:18:40;;;;;;;2.53;1.00;;;;;;;;;;5055094;28;20186;-69
2022/09/09 12:21:31;;;;;;;1.57;1.00;;;;;;;;;;5049275;28;20198;-67
2022/09/09 12:24:12;;;;;;;2.20;0.90;;;;;;;;;;5047294;28;20199;-69
2022/09/09 12:26:39;;;;;;;3.23;1.00;;;;;;;;;;5046905;28;20574;-66
2022/09/09 12:29:34;;;;;;;2.57;1.10;;;;;;;;;;5050137;28;20201;-65
2022/09/09 12:32:14;;;;;;;2.23;0.90;;;;;;;;;;5025673;28;20210;-68
2022/09/09 12:35:07;;;;;;;2.23;0.90;;;;;;;;;;5049251;28;20201;-69
2022/09/09 12:37:48;;;;;;;2.13;0.90;;;;;;;;;;5055896;28;20210;-66
2022/09/09 12:40:27;;;;;;;2.20;0.90;;;;;;;;;;5054543;28;20194;-68
2022/09/09 12:43:01;;;;;;;5.50;1.30;;;;;;;;;;5048936;28;20566;-71
2022/09/09 12:45:33;;;;;;;1.53;0.97;;;;;;;;;;5055512;28;20205;-69
2022/09/09 12:48:25;;;;;;;2.43;1.03;;;;;;;;;;5032694;28;20200;-68
2022/09/09 12:50:56;;;;;;;2.53;1.10;;;;;;;;;;5045387;28;20214;-70
2022/09/09 12:53:38;;;;;;;1.67;1.00;;;;;;;;;;5050497;28;20230;-69
2022/09/09 12:56:22;;;;;;;1.07;0.80;;;;;;;;;;5082392;28;20275;-70
2022/09/09 12:58:58;;;;;;;1.53;0.67;;;;;;;;;;5047259;28;20219;-70
2022/09/09 13:01:34;;;;;;;1.30;0.77;;;;;;;;;;5076360;28;20202;-73
2022/09/09 13:04:21;;;;;;;2.57;1.00;;;;;;;;;;5036891;28;20234;-68
2022/09/09 13:06:55;;;;;;;1.60;0.80;;;;;;;;;;5055297;28;20201;-66
2022/09/09 13:09:26;;;;;;;2.97;0.97;;;;;;;;;;5033995;28;20798;-67
2022/09/09 13:12:00;;;;;;;3.17;1.20;;;;;;;;;;5047806;28;20733;-70
2022/09/09 13:14:29;;;;;;;1.47;0.80;;;;;;;;;;5047047;28;20267;-71
2022/09/09 13:17:01;;;;;;;2.47;1.37;;;;;;;;;;5032866;28;20217;-71
2022/09/09 13:19:35;;;;;;;3.60;1.27;;;;;;;;;;5061003;28;20574;-65
2022/09/09 13:22:16;;;;;;;2.50;1.07;;;;;;;;;;5022517;28;20265;-66
2022/09/09 13:24:47;;;;;;;2.23;1.10;;;;;;;;;;5046747;28;20187;-66
2022/09/09 13:27:44;;;;;;;3.43;0.90;;;;;;;;;;5060639;28;20210;-68
2022/09/09 13:30:23;;;;;;;5.20;0.80;;;;;;;;;;5041876;28;20210;-67
2022/09/09 13:33:23;;;;;;;2.67;0.80;;;;;;;;;;5049121;28;20217;-66
2022/09/09 13:35:57;;;;;;;2.10;1.00;;;;;;;;;;5067612;28;20202;-65
2022/09/09 13:38:29;;;;;;;6.53;1.80;;;;;;;;;;5042807;28;20221;-65
2022/09/09 13:41:09;;;;;;;5.57;1.70;;;;;;;;;;5046840;28;20198;-67
2022/09/09 13:43:47;;;;;;;6.03;1.30;;;;;;;;;;5063693;28;20218;-68
2022/09/09 13:46:22;;;;;;;3.93;1.50;;;;;;;;;;5016694;28;20194;-65
2022/09/09 13:48:58;;;;;;;3.50;1.43;;;;;;;;;;5055997;28;20194;-65
2022/09/09 13:51:37;;;;;;;6.50;1.60;;;;;;;;;;5048967;28;20219;-67
2022/09/09 13:54:12;;;;;;;5.17;1.40;;;;;;;;;;5036373;28;20200;-70
2022/09/09 13:56:41;;;;;;;3.10;1.20;;;;;;;;;;5051280;28;20221;-65
2022/09/09 13:59:16;;;;;;;4.00;1.10;;;;;;;;;;5042074;28;20214;-66
2022/09/09 14:01:46;;;;;;;2.60;1.20;;;;;;;;;;5048887;28;20420;-70
2022/09/09 14:04:16;;;;;;;4.17;1.37;;;;;;;;;;5044598;28;20233;-69
2022/09/09 14:06:44;;;;;;;2.40;1.13;;;;;;;;;;5034273;28;20187;-66
2022/09/09 14:09:22;;;;;;;2.03;0.97;;;;;;;;;;5052451;28;20586;-65
2022/09/09 14:11:51;;;;;;;2.97;1.00;;;;;;;;;;5054673;28;20203;-66
2022/09/09 14:14:20;;;;;;;2.70;1.37;;;;;;;;;;5048409;28;20222;-67
2022/09/09 14:16:50;;;;;;;3.67;1.10;;;;;;;;;;5053653;28;20190;-65
2022/09/09 14:19:21;;;;;;;1.67;1.10;;;;;;;;;;5058275;28;20275;-67
2022/09/09 14:21:51;;;;;;;2.73;1.10;;;;;;;;;;5060581;28;20285;-63
2022/09/09 14:24:21;;;;;;;4.50;1.07;;;;;;;;;;5046924;28;20252;-66
2022/09/09 14:26:51;;;;;;;2.13;1.13;;;;;;;;;;5033642;28;20206;-64
2022/09/09 14:29:26;;;;;;;2.53;1.20;;;;;;;;;;5055494;28;20203;-66
2022/09/09 14:31:57;;;;;;;3.40;1.20;;;;;;;;;;5051716;28;20607;-66
2022/09/09 14:34:28;;;;;;;2.40;0.97;;;;;;;;;;5049498;28;20202;-65
2022/09/09 14:37:07;;;;;;;2.13;1.00;;;;;;;;;;5051908;28;20194;-64
2022/09/09 14:39:39;;;;;;;2.87;1.00;;;;;;;;;;5049278;28;20217;-63
2022/09/09 14:42:10;;;;;;;3.17;1.20;;;;;;;;;;5046898;28;20815;-64
2022/09/09 14:44:40;;;;;;;5.67;1.10;;;;;;;;;;5047904;28;20333;-65
2022/09/09 14:47:12;;;;;;;2.40;1.10;;;;;;;;;;5044364;28;20544;-67
2022/09/09 14:49:45;;;;;;;1.67;1.17;;;;;;;;;;5043501;28;20217;-67
2022/09/09 14:52:16;;;;;;;3.93;1.27;;;;;;;;;;5022544;28;20298;-63
2022/09/09 14:54:47;;;;;;;2.60;1.03;;;;;;;;;;5050448;28;20190;-66
2022/09/09 14:57:18;;;;;;;2.53;1.13;;;;;;;;;;5041266;28;20193;-69
2022/09/09 14:59:50;;;;;;;1.70;1.00;;;;;;;;;;5047177;28;20212;-68
2022/09/09 15:02:19;;;;;;;2.77;1.10;;;;;;;;;;5031222;28;20206;-65
2022/09/09 15:04:49;;;;;;;3.85;1.30;;;;;;;;;;5024262;28;21121;-65
2022/09/09 15:07:28;;;;;;;3.67;1.40;;;;;;;;;;5035337;28;20194;-66
2022/09/09 15:10:01;;;;;;;3.60;1.13;;;;;;;;;;5039449;28;20553;-65
2022/09/09 15:12:38;;;;;;;2.47;1.10;;;;;;;;;;5013182;28;20213;-66
2022/09/09 15:15:12;;;;;;;2.30;1.10;;;;;;;;;;5044493;28;20310;-63
2022/09/09 15:17:45;;;;;;;3.00;1.30;;;;;;;;;;5027359;28;20206;-65
2022/09/09 15:20:25;;;;;;;2.57;1.27;;;;;;;;;;5019270;28;20198;-63
2022/09/09 15:22:56;;;;;;;2.70;1.20;;;;;;;;;;5039396;28;20283;-65
2022/09/09 15:25:29;;;;;;;4.77;1.33;;;;;;;;;;5041577;28;20347;-65
2022/09/09 15:27:56;;;;;;;2.73;1.17;;;;;;;;;;5021561;28;20226;-65
2022/09/09 15:30:32;;;;;;;3.07;1.50;;;;;;;;;;5037435;28;20199;-65
2022/09/09 15:33:14;;;;;;;3.10;1.37;;;;;;;;;;5026912;28;20213;-65
2022/09/09 15:35:48;;;;;;;4.53;1.20;;;;;;;;;;5051458;28;20659;-64
2022/09/09 15:38:22;;;;;;;2.23;1.10;;;;;;;;;;5047896;28;20260;-64
2022/09/09 15:40:55;;;;;;;6.63;1.23;;;;;;;;;;5030426;28;20284;-65